sensor_id;sensor_type;location;lat;lon;timestamp;P1;durP1;ratioP1;P2;durP2;ratioP2
1054;SDS011;516;51.482;7.120;2023-06-05T00:04:39;12.00;;;11.07;;
1054;SDS011;516;51.482;7.120;2023-06-05T00:10:27;11.70;;;10.80;;
1054;SDS011;516;51.482;7.120;2023-06-05T00:16:15;10.90;;;10.20;;
1054;SDS011;516;51.482;7.120;2023-06-05T00:28:28;10.60;;;9.60;;
1054;SDS011;516;51.482;7.120;2023-06-05T00:34:17;10.87;;;10.27;;
1054;SDS011;516;51.482;7.120;2023-06-05T00:40:06;10.80;;;10.07;;
1054;SDS011;516;51.482;7.120;2023-06-05T00:45:56;10.30;;;9.63;;
1054;SDS011;516;51.482;7.120;2023-06-05T00:51:49;11.00;;;10.10;;
1054;SDS011;516;51.482;7.120;2023-06-05T00:57:40;10.30;;;9.27;;
1054;SDS011;516;51.482;7.120;2023-06-05T01:06:49;10.50;;;9.90;;
1054;SDS011;516;51.482;7.120;2023-06-05T01:12:41;10.50;;;9.90;;
1054;SDS011;516;51.482;7.120;2023-06-05T01:19:09;11.17;;;10.47;;
1054;SDS011;516;51.482;7.120;2023-06-05T01:28:24;10.30;;;9.60;;
1054;SDS011;516;51.482;7.120;2023-06-05T01:34:16;10.87;;;9.83;;
1054;SDS011;516;51.482;7.120;2023-06-05T01:40:07;10.70;;;9.70;;
1054;SDS011;516;51.482;7.120;2023-06-05T01:45:59;10.20;;;9.30;;
1054;SDS011;516;51.482;7.120;2023-06-05T01:51:47;10.70;;;9.80;;
1054;SDS011;516;51.482;7.120;2023-06-05T01:57:35;10.73;;;9.90;;
1054;SDS011;516;51.482;7.120;2023-06-05T02:03:24;10.07;;;9.47;;
1054;SDS011;516;51.482;7.120;2023-06-05T02:09:12;10.73;;;9.73;;
1054;SDS011;516;51.482;7.120;2023-06-05T02:15:00;11.37;;;10.57;;
1054;SDS011;516;51.482;7.120;2023-06-05T02:20:50;14.83;;;9.50;;
1054;SDS011;516;51.482;7.120;2023-06-05T02:26:40;9.90;;;9.10;;
1054;SDS011;516;51.482;7.120;2023-06-05T02:32:28;10.67;;;9.67;;
1054;SDS011;516;51.482;7.120;2023-06-05T02:38:16;9.70;;;9.00;;
1054;SDS011;516;51.482;7.120;2023-06-05T02:44:03;9.60;;;9.00;;
1054;SDS011;516;51.482;7.120;2023-06-05T02:49:51;11.17;;;10.10;;
1054;SDS011;516;51.482;7.120;2023-06-05T02:55:39;10.57;;;9.73;;
1054;SDS011;516;51.482;7.120;2023-06-05T03:01:27;9.47;;;8.70;;
1054;SDS011;516;51.482;7.120;2023-06-05T03:07:21;15.47;;;9.60;;
1054;SDS011;516;51.482;7.120;2023-06-05T03:13:10;9.77;;;8.97;;
1054;SDS011;516;51.482;7.120;2023-06-05T03:18:57;9.97;;;9.07;;
1054;SDS011;516;51.482;7.120;2023-06-05T03:28:14;9.27;;;8.53;;
1054;SDS011;516;51.482;7.120;2023-06-05T03:34:02;10.17;;;8.97;;
1054;SDS011;516;51.482;7.120;2023-06-05T03:39:50;10.63;;;9.50;;
1054;SDS011;516;51.482;7.120;2023-06-05T03:45:38;10.50;;;9.43;;
1054;SDS011;516;51.482;7.120;2023-06-05T03:51:29;13.63;;;11.50;;
1054;SDS011;516;51.482;7.120;2023-06-05T03:57:16;10.70;;;9.70;;
1054;SDS011;516;51.482;7.120;2023-06-05T04:06:24;9.53;;;8.80;;
1054;SDS011;516;51.482;7.120;2023-06-05T04:12:11;13.60;;;9.63;;
1054;SDS011;516;51.482;7.120;2023-06-05T04:18:01;10.37;;;9.50;;
1054;SDS011;516;51.482;7.120;2023-06-05T04:30:33;12.23;;;11.33;;
1054;SDS011;516;51.482;7.120;2023-06-05T04:36:22;13.33;;;12.07;;
1054;SDS011;516;51.482;7.120;2023-06-05T04:42:10;12.13;;;11.00;;
1054;SDS011;516;51.482;7.120;2023-06-05T04:47:58;13.07;;;11.83;;
1054;SDS011;516;51.482;7.120;2023-06-05T04:53:46;14.13;;;12.73;;
1054;SDS011;516;51.482;7.120;2023-06-05T04:59:37;14.07;;;12.73;;
1054;SDS011;516;51.482;7.120;2023-06-05T05:05:26;13.80;;;12.70;;
1054;SDS011;516;51.482;7.120;2023-06-05T05:11:14;15.20;;;13.73;;
1054;SDS011;516;51.482;7.120;2023-06-05T05:17:02;15.00;;;13.60;;
1054;SDS011;516;51.482;7.120;2023-06-05T05:22:51;16.70;;;15.20;;
1054;SDS011;516;51.482;7.120;2023-06-05T05:28:40;15.77;;;14.47;;
1054;SDS011;516;51.482;7.120;2023-06-05T05:34:30;15.43;;;14.13;;
1054;SDS011;516;51.482;7.120;2023-06-05T05:40:20;13.97;;;12.77;;
1054;SDS011;516;51.482;7.120;2023-06-05T05:46:08;15.70;;;14.37;;
1054;SDS011;516;51.482;7.120;2023-06-05T05:51:56;16.83;;;15.30;;
1054;SDS011;516;51.482;7.120;2023-06-05T05:57:44;16.93;;;15.90;;
1054;SDS011;516;51.482;7.120;2023-06-05T06:03:33;15.80;;;14.80;;
1054;SDS011;516;51.482;7.120;2023-06-05T06:09:24;19.03;;;17.43;;
1054;SDS011;516;51.482;7.120;2023-06-05T06:15:12;18.80;;;17.43;;
1054;SDS011;516;51.482;7.120;2023-06-05T06:21:00;19.97;;;18.40;;
1054;SDS011;516;51.482;7.120;2023-06-05T06:23:43;18.10;;;16.90;;
1054;SDS011;516;51.482;7.120;2023-06-05T06:26:10;19.40;;;18.00;;
1054;SDS011;516;51.482;7.120;2023-06-05T06:31:58;18.43;;;17.20;;
1054;SDS011;516;51.482;7.120;2023-06-05T06:37:47;20.13;;;18.70;;
1054;SDS011;516;51.482;7.120;2023-06-05T06:43:36;19.87;;;18.50;;
1054;SDS011;516;51.482;7.120;2023-06-05T06:49:23;19.63;;;18.37;;
1054;SDS011;516;51.482;7.120;2023-06-05T06:55:11;19.40;;;17.93;;
1054;SDS011;516;51.482;7.120;2023-06-05T07:00:59;19.93;;;17.90;;
1054;SDS011;516;51.482;7.120;2023-06-05T07:06:47;19.90;;;18.47;;
1054;SDS011;516;51.482;7.120;2023-06-05T07:12:35;21.10;;;19.40;;
1054;SDS011;516;51.482;7.120;2023-06-05T07:18:22;22.00;;;20.13;;
1054;SDS011;516;51.482;7.120;2023-06-05T07:34:03;19.97;;;18.77;;
1054;SDS011;516;51.482;7.120;2023-06-05T07:39:52;18.83;;;17.60;;
1054;SDS011;516;51.482;7.120;2023-06-05T07:45:41;18.97;;;17.50;;
1054;SDS011;516;51.482;7.120;2023-06-05T07:51:28;18.00;;;16.80;;
1054;SDS011;516;51.482;7.120;2023-06-05T07:57:20;18.77;;;17.60;;
1054;SDS011;516;51.482;7.120;2023-06-05T08:03:08;19.20;;;18.07;;
1054;SDS011;516;51.482;7.120;2023-06-05T08:08:56;19.20;;;17.83;;
1054;SDS011;516;51.482;7.120;2023-06-05T08:14:44;20.13;;;18.27;;
1054;SDS011;516;51.482;7.120;2023-06-05T08:20:32;19.67;;;18.30;;
1054;SDS011;516;51.482;7.120;2023-06-05T08:26:09;18.73;;;17.63;;
1054;SDS011;516;51.482;7.120;2023-06-05T08:32:00;19.50;;;17.57;;
1054;SDS011;516;51.482;7.120;2023-06-05T08:37:47;18.90;;;17.27;;
1054;SDS011;516;51.482;7.120;2023-06-05T08:43:36;17.03;;;15.70;;
1054;SDS011;516;51.482;7.120;2023-06-05T08:49:24;16.67;;;15.57;;
1054;SDS011;516;51.482;7.120;2023-06-05T08:55:16;16.73;;;15.63;;
1054;SDS011;516;51.482;7.120;2023-06-05T09:01:05;18.23;;;17.13;;
1054;SDS011;516;51.482;7.120;2023-06-05T09:06:52;18.23;;;16.93;;
1054;SDS011;516;51.482;7.120;2023-06-05T09:13:14;16.80;;;15.70;;
1054;SDS011;516;51.482;7.120;2023-06-05T09:19:39;16.40;;;15.30;;
1054;SDS011;516;51.482;7.120;2023-06-05T09:28:53;17.47;;;16.07;;
1054;SDS011;516;51.482;7.120;2023-06-05T09:34:45;18.83;;;16.77;;
1054;SDS011;516;51.482;7.120;2023-06-05T09:41:12;15.87;;;14.83;;
1054;SDS011;516;51.482;7.120;2023-06-05T09:47:06;15.93;;;14.83;;
1054;SDS011;516;51.482;7.120;2023-06-05T09:52:57;16.57;;;15.37;;
1054;SDS011;516;51.482;7.120;2023-06-05T09:58:52;17.03;;;15.73;;
1054;SDS011;516;51.482;7.120;2023-06-05T10:04:45;17.80;;;16.70;;
1054;SDS011;516;51.482;7.120;2023-06-05T10:10:35;17.00;;;15.90;;
1054;SDS011;516;51.482;7.120;2023-06-05T10:16:25;16.03;;;14.93;;
1054;SDS011;516;51.482;7.120;2023-06-05T10:22:17;16.10;;;14.73;;
1054;SDS011;516;51.482;7.120;2023-06-05T10:31:34;15.60;;;14.60;;
1054;SDS011;516;51.482;7.120;2023-06-05T10:44:05;16.43;;;15.00;;
1054;SDS011;516;51.482;7.120;2023-06-05T10:56:02;16.37;;;15.27;;
1054;SDS011;516;51.482;7.120;2023-06-05T11:08:09;14.60;;;13.70;;
1054;SDS011;516;51.482;7.120;2023-06-05T11:14:00;15.70;;;14.60;;
1054;SDS011;516;51.482;7.120;2023-06-05T11:19:48;15.23;;;14.23;;
1054;SDS011;516;51.482;7.120;2023-06-05T11:25:35;14.80;;;13.90;;
1054;SDS011;516;51.482;7.120;2023-06-05T11:34:46;15.03;;;14.13;;
1054;SDS011;516;51.482;7.120;2023-06-05T11:40:34;15.83;;;14.73;;
1054;SDS011;516;51.482;7.120;2023-06-05T11:46:42;14.90;;;14.00;;
1054;SDS011;516;51.482;7.120;2023-06-05T11:52:30;13.73;;;12.83;;
1054;SDS011;516;51.482;7.120;2023-06-05T12:04:15;14.23;;;13.47;;
1054;SDS011;516;51.482;7.120;2023-06-05T12:09:50;15.10;;;13.80;;
1054;SDS011;516;51.482;7.120;2023-06-05T12:15:38;15.60;;;14.10;;
1054;SDS011;516;51.482;7.120;2023-06-05T12:21:26;14.70;;;13.80;;
1054;SDS011;516;51.482;7.120;2023-06-05T12:27:14;14.23;;;13.43;;
1054;SDS011;516;51.482;7.120;2023-06-05T12:32:44;14.27;;;13.17;;
1054;SDS011;516;51.482;7.120;2023-06-05T12:38:39;15.57;;;14.57;;
1054;SDS011;516;51.482;7.120;2023-06-05T12:44:28;15.03;;;13.97;;
1054;SDS011;516;51.482;7.120;2023-06-05T12:50:17;14.30;;;13.50;;
1054;SDS011;516;51.482;7.120;2023-06-05T12:56:06;13.97;;;13.17;;
1054;SDS011;516;51.482;7.120;2023-06-05T13:01:54;14.10;;;13.30;;
1054;SDS011;516;51.482;7.120;2023-06-05T13:07:44;14.80;;;14.00;;
1054;SDS011;516;51.482;7.120;2023-06-05T13:13:31;15.00;;;13.80;;
1054;SDS011;516;51.482;7.120;2023-06-05T13:19:20;15.10;;;14.00;;
1054;SDS011;516;51.482;7.120;2023-06-05T13:25:08;13.90;;;13.10;;
1054;SDS011;516;51.482;7.120;2023-06-05T13:41:12;13.57;;;12.77;;
1054;SDS011;516;51.482;7.120;2023-06-05T13:47:00;14.00;;;13.20;;
1054;SDS011;516;51.482;7.120;2023-06-05T13:52:49;14.00;;;13.10;;
1054;SDS011;516;51.482;7.120;2023-06-05T13:58:36;13.70;;;12.60;;
1054;SDS011;516;51.482;7.120;2023-06-05T14:04:23;13.37;;;12.47;;
1054;SDS011;516;51.482;7.120;2023-06-05T14:10:11;14.10;;;13.30;;
1054;SDS011;516;51.482;7.120;2023-06-05T14:15:58;13.67;;;12.70;;
1054;SDS011;516;51.482;7.120;2023-06-05T14:21:45;14.07;;;13.17;;
1054;SDS011;516;51.482;7.120;2023-06-05T14:27:34;14.57;;;13.30;;
1054;SDS011;516;51.482;7.120;2023-06-05T14:32:44;13.80;;;13.10;;
1054;SDS011;516;51.482;7.120;2023-06-05T14:38:32;13.27;;;12.57;;
1054;SDS011;516;51.482;7.120;2023-06-05T14:44:20;13.50;;;12.80;;
1054;SDS011;516;51.482;7.120;2023-06-05T14:50:07;14.17;;;13.00;;
1054;SDS011;516;51.482;7.120;2023-06-05T14:55:55;13.80;;;13.10;;
1054;SDS011;516;51.482;7.120;2023-06-05T15:01:43;12.77;;;12.07;;
1054;SDS011;516;51.482;7.120;2023-06-05T15:07:35;12.73;;;11.83;;
1054;SDS011;516;51.482;7.120;2023-06-05T15:13:24;12.73;;;11.93;;
1054;SDS011;516;51.482;7.120;2023-06-05T15:19:11;12.77;;;12.07;;
1054;SDS011;516;51.482;7.120;2023-06-05T15:24:59;12.70;;;11.90;;
1054;SDS011;516;51.482;7.120;2023-06-05T15:40:34;12.63;;;11.93;;
1054;SDS011;516;51.482;7.120;2023-06-05T15:46:22;12.80;;;12.00;;
1054;SDS011;516;51.482;7.120;2023-06-05T15:52:10;12.80;;;11.90;;
1054;SDS011;516;51.482;7.120;2023-06-05T15:57:58;12.93;;;12.03;;
1054;SDS011;516;51.482;7.120;2023-06-05T16:03:46;12.70;;;11.93;;
1054;SDS011;516;51.482;7.120;2023-06-05T16:09:34;13.67;;;12.83;;
1054;SDS011;516;51.482;7.120;2023-06-05T16:15:22;13.90;;;13.10;;
1054;SDS011;516;51.482;7.120;2023-06-05T16:21:10;15.03;;;14.03;;
1054;SDS011;516;51.482;7.120;2023-06-05T16:26:57;13.93;;;13.27;;
1054;SDS011;516;51.482;7.120;2023-06-05T16:33:01;14.80;;;13.80;;
1054;SDS011;516;51.482;7.120;2023-06-05T16:38:49;14.87;;;13.93;;
1054;SDS011;516;51.482;7.120;2023-06-05T16:44:36;13.90;;;13.20;;
1054;SDS011;516;51.482;7.120;2023-06-05T16:50:24;14.10;;;13.40;;
1054;SDS011;516;51.482;7.120;2023-06-05T16:56:11;15.50;;;14.70;;
1054;SDS011;516;51.482;7.120;2023-06-05T17:01:58;16.27;;;15.27;;
1054;SDS011;516;51.482;7.120;2023-06-05T17:07:46;16.20;;;15.50;;
1054;SDS011;516;51.482;7.120;2023-06-05T17:13:33;15.67;;;14.33;;
1054;SDS011;516;51.482;7.120;2023-06-05T17:19:21;15.13;;;14.13;;
1054;SDS011;516;51.482;7.120;2023-06-05T17:25:09;14.97;;;14.27;;
1054;SDS011;516;51.482;7.120;2023-06-05T17:40:36;17.43;;;16.67;;
1054;SDS011;516;51.482;7.120;2023-06-05T17:46:26;18.07;;;17.17;;
1054;SDS011;516;51.482;7.120;2023-06-05T17:52:14;17.37;;;16.57;;
1054;SDS011;516;51.482;7.120;2023-06-05T17:58:02;16.77;;;15.97;;
1054;SDS011;516;51.482;7.120;2023-06-05T18:03:49;17.87;;;16.97;;
1054;SDS011;516;51.482;7.120;2023-06-05T18:09:37;19.00;;;18.10;;
1054;SDS011;516;51.482;7.120;2023-06-05T18:15:25;44.10;;;40.50;;
1054;SDS011;516;51.482;7.120;2023-06-05T18:21:13;19.50;;;18.60;;
1054;SDS011;516;51.482;7.120;2023-06-05T18:27:01;17.47;;;16.40;;
1054;SDS011;516;51.482;7.120;2023-06-05T18:33:02;16.33;;;15.57;;
1054;SDS011;516;51.482;7.120;2023-06-05T18:38:50;16.80;;;16.00;;
1054;SDS011;516;51.482;7.120;2023-06-05T18:44:37;17.20;;;16.20;;
1054;SDS011;516;51.482;7.120;2023-06-05T18:50:26;18.13;;;17.10;;
1054;SDS011;516;51.482;7.120;2023-06-05T18:56:15;18.87;;;17.83;;
1054;SDS011;516;51.482;7.120;2023-06-05T19:02:02;17.70;;;16.90;;
1054;SDS011;516;51.482;7.120;2023-06-05T19:07:49;17.33;;;16.57;;
1054;SDS011;516;51.482;7.120;2023-06-05T19:13:37;17.50;;;16.33;;
1054;SDS011;516;51.482;7.120;2023-06-05T19:19:25;19.00;;;17.67;;
1054;SDS011;516;51.482;7.120;2023-06-05T19:25:13;18.73;;;17.20;;
1054;SDS011;516;51.482;7.120;2023-06-05T19:40:39;17.33;;;16.53;;
1054;SDS011;516;51.482;7.120;2023-06-05T19:46:27;18.33;;;17.33;;
1054;SDS011;516;51.482;7.120;2023-06-05T19:52:15;18.73;;;17.93;;
1054;SDS011;516;51.482;7.120;2023-06-05T19:58:03;19.70;;;18.60;;
1054;SDS011;516;51.482;7.120;2023-06-05T20:03:50;18.93;;;17.83;;
1054;SDS011;516;51.482;7.120;2023-06-05T20:09:38;18.17;;;17.17;;
1054;SDS011;516;51.482;7.120;2023-06-05T20:15:27;18.33;;;17.33;;
1054;SDS011;516;51.482;7.120;2023-06-05T20:21:15;17.93;;;17.13;;
1054;SDS011;516;51.482;7.120;2023-06-05T20:27:03;18.13;;;17.33;;
1054;SDS011;516;51.482;7.120;2023-06-05T20:32:53;17.97;;;17.03;;
1054;SDS011;516;51.482;7.120;2023-06-05T20:38:41;17.77;;;16.67;;
1054;SDS011;516;51.482;7.120;2023-06-05T20:44:29;18.70;;;17.80;;
1054;SDS011;516;51.482;7.120;2023-06-05T20:50:25;17.73;;;16.93;;
1054;SDS011;516;51.482;7.120;2023-06-05T20:56:22;18.37;;;17.40;;
1054;SDS011;516;51.482;7.120;2023-06-05T21:02:47;19.10;;;17.70;;
1054;SDS011;516;51.482;7.120;2023-06-05T21:08:37;17.30;;;16.50;;
1054;SDS011;516;51.482;7.120;2023-06-05T21:14:25;18.37;;;17.27;;
1054;SDS011;516;51.482;7.120;2023-06-05T21:20:13;17.80;;;16.97;;
1054;SDS011;516;51.482;7.120;2023-06-05T21:26:00;17.67;;;16.77;;
1054;SDS011;516;51.482;7.120;2023-06-05T21:31:48;17.20;;;16.30;;
1054;SDS011;516;51.482;7.120;2023-06-05T21:37:17;16.77;;;15.93;;
1054;SDS011;516;51.482;7.120;2023-06-05T21:43:05;15.83;;;14.90;;
1054;SDS011;516;51.482;7.120;2023-06-05T21:48:53;17.13;;;16.33;;
1054;SDS011;516;51.482;7.120;2023-06-05T21:54:41;17.40;;;16.50;;
1054;SDS011;516;51.482;7.120;2023-06-05T22:00:29;17.47;;;16.37;;
1054;SDS011;516;51.482;7.120;2023-06-05T22:06:16;16.23;;;15.00;;
1054;SDS011;516;51.482;7.120;2023-06-05T22:12:04;15.07;;;14.07;;
1054;SDS011;516;51.482;7.120;2023-06-05T22:17:54;16.00;;;14.70;;
1054;SDS011;516;51.482;7.120;2023-06-05T22:23:41;15.30;;;14.33;;
1054;SDS011;516;51.482;7.120;2023-06-05T22:29:31;14.77;;;13.97;;
1054;SDS011;516;51.482;7.120;2023-06-05T22:45:07;13.87;;;13.07;;
1054;SDS011;516;51.482;7.120;2023-06-05T22:50:55;13.97;;;13.07;;
1054;SDS011;516;51.482;7.120;2023-06-05T22:56:45;14.47;;;13.47;;
1054;SDS011;516;51.482;7.120;2023-06-05T23:02:32;14.57;;;13.60;;
1054;SDS011;516;51.482;7.120;2023-06-05T23:08:20;14.37;;;13.57;;
1054;SDS011;516;51.482;7.120;2023-06-05T23:14:09;14.70;;;13.70;;
1054;SDS011;516;51.482;7.120;2023-06-05T23:19:57;14.63;;;13.83;;
1054;SDS011;516;51.482;7.120;2023-06-05T23:25:45;14.10;;;13.13;;
1054;SDS011;516;51.482;7.120;2023-06-05T23:31:33;13.87;;;12.53;;
1054;SDS011;516;51.482;7.120;2023-06-05T23:37:17;12.93;;;12.13;;
1054;SDS011;516;51.482;7.120;2023-06-05T23:43:05;14.50;;;13.40;;
1054;SDS011;516;51.482;7.120;2023-06-05T23:48:53;14.00;;;12.83;;
1054;SDS011;516;51.482;7.120;2023-06-05T23:54:41;13.30;;;12.50;;
